Main page


Airports :

Gwadar, Pakistan

Gwadar International Airport

latitude: 25-13-59N, longitude: 062-19-46E, elevation: 29 m

METAR: missing

Time: 04:03 (23:03 UTC)


The report was made 7 hours and 33 minutes ago, at 15:30 UTC
Forecast valid from 22 at 18 UTC to 23 at 18 UTC
Wind 8 kt from the South/Southwest with gusts up to 18 kt
Visibility: 5000 m
from 23 at 00 UTC to 23 at 04 UTC
Wind kt from the North
Visibility: 2000 m

TAF: OPGD 221530Z 2218/2318 21008G18KT 5000 HZ TEMPO 2300/2304 00000KT 2000 BR NSC

Weather observations and forecasts of more than 4000 airports (METAR and TAF reports).

The available stations are represented by yellow and red dots on the map.

Hover mouse over dot to see the name of the station.

Then click to see weather observations and forecasts.

To change the map : click on the green buttons with a black cross to zoom in, on the green button with a dash to zoom out, or on the green arrows for adjacent maps.